createdAt,value
2019-05-14T00:00:52.274Z,7.28
2019-05-14T00:01:51.429Z,7.28
2019-05-14T00:02:52.080Z,7.27
2019-05-14T00:03:51.627Z,7.27
2019-05-14T00:04:51.174Z,7.26
2019-05-14T00:05:51.762Z,7.26
2019-05-14T00:06:51.946Z,7.24
2019-05-14T00:07:52.126Z,7.24
2019-05-14T00:08:52.199Z,7.21
2019-05-14T00:09:51.912Z,7.19
2019-05-14T00:10:52.053Z,7.18
2019-05-14T00:11:51.265Z,7.17
2019-05-14T00:12:51.286Z,7.16
2019-05-14T00:13:52.073Z,7.15
2019-05-14T00:14:51.623Z,7.14
2019-05-14T00:15:52.258Z,7.14
2019-05-14T00:16:51.308Z,7.12
2019-05-14T00:17:52.269Z,7.12
2019-05-14T00:18:51.186Z,7.11
2019-05-14T00:20:05.856Z,7.09
2019-05-14T00:20:51.352Z,7.08
2019-05-14T00:21:51.452Z,7.08
2019-05-14T00:22:52.153Z,7.07
2019-05-14T00:23:51.372Z,7.04
2019-05-14T00:24:51.981Z,7.02
2019-05-14T00:25:52.067Z,7.00
2019-05-14T00:26:51.707Z,6.96
2019-05-14T00:27:51.937Z,6.92
2019-05-14T00:28:51.223Z,6.91
2019-05-14T00:29:51.804Z,6.89
2019-05-14T00:30:52.324Z,6.86
2019-05-14T00:31:51.693Z,6.85
2019-05-14T00:32:52.017Z,6.84
2019-05-14T00:33:51.264Z,6.81
2019-05-14T00:34:51.563Z,6.78
2019-05-14T00:35:51.480Z,6.75
2019-05-14T00:36:52.273Z,6.72
2019-05-14T00:37:52.081Z,6.69
2019-05-14T00:38:51.292Z,6.67
2019-05-14T00:39:52.056Z,6.63
2019-05-14T00:40:51.327Z,6.61
2019-05-14T00:41:51.286Z,6.58
2019-05-14T00:42:50.101Z,6.56
2019-05-14T00:43:51.386Z,6.53
2019-05-14T00:44:55.313Z,6.50
2019-05-14T00:45:51.228Z,6.48
2019-05-14T00:46:51.597Z,6.45
2019-05-14T00:47:52.350Z,6.43
2019-05-14T00:48:51.452Z,6.39
2019-05-14T00:49:51.665Z,6.35
2019-05-14T00:50:51.609Z,6.32
2019-05-14T00:51:51.914Z,6.28
2019-05-14T00:52:51.633Z,6.25
2019-05-14T00:53:51.577Z,6.22
2019-05-14T00:54:51.990Z,6.19
2019-05-14T00:55:51.631Z,6.16
2019-05-14T00:56:51.979Z,6.14
2019-05-14T00:57:51.995Z,6.11
2019-05-14T00:58:51.929Z,6.08
2019-05-14T00:59:52.053Z,6.06
2019-05-14T01:00:52.280Z,6.04
2019-05-14T01:01:51.677Z,6.02
2019-05-14T01:02:51.722Z,5.99
2019-05-14T01:03:51.895Z,5.96
2019-05-14T01:04:51.557Z,5.93
2019-05-14T01:05:51.952Z,5.90
2019-05-14T01:06:51.153Z,5.88
2019-05-14T01:07:51.403Z,5.85
2019-05-14T01:08:51.692Z,5.82
2019-05-14T01:09:52.106Z,5.79
2019-05-14T01:10:51.243Z,5.76
2019-05-14T01:11:51.320Z,5.74
2019-05-14T01:12:51.891Z,5.72
2019-05-14T01:13:52.023Z,5.69
2019-05-14T01:14:52.870Z,5.66
2019-05-14T01:15:52.191Z,5.64
2019-05-14T01:16:51.359Z,5.63
2019-05-14T01:17:51.595Z,5.60
2019-05-14T01:18:51.342Z,5.58
2019-05-14T01:19:51.340Z,5.55
2019-05-14T01:20:51.710Z,5.53
2019-05-14T01:21:51.060Z,5.49
2019-05-14T01:22:51.591Z,5.47
2019-05-14T01:23:51.340Z,5.45
2019-05-14T01:24:52.034Z,5.42
2019-05-14T01:25:51.694Z,5.40
2019-05-14T01:26:52.082Z,5.39
2019-05-14T01:27:51.642Z,5.35
2019-05-14T01:28:51.320Z,5.33
2019-05-14T01:29:51.428Z,5.30
2019-05-14T01:30:51.622Z,5.27
2019-05-14T01:31:51.859Z,5.23
2019-05-14T01:32:51.200Z,5.20
2019-05-14T01:33:51.381Z,5.17
2019-05-14T01:34:51.959Z,5.14
2019-05-14T01:35:51.414Z,5.10
2019-05-14T01:36:49.516Z,5.08
2019-05-14T01:37:51.992Z,5.04
2019-05-14T01:38:51.308Z,5.02
2019-05-14T01:39:51.764Z,5.00
2019-05-14T01:40:49.492Z,4.98
2019-05-14T01:41:51.522Z,4.95
2019-05-14T01:42:52.037Z,4.93
2019-05-14T01:43:51.273Z,4.90
2019-05-14T01:44:51.694Z,4.89
2019-05-14T01:45:49.417Z,4.87
2019-05-14T01:46:51.217Z,4.84
2019-05-14T01:47:51.917Z,4.82
2019-05-14T01:48:49.430Z,4.80
2019-05-14T01:49:51.326Z,4.77
2019-05-14T01:50:51.816Z,4.74
2019-05-14T01:51:51.162Z,4.72
2019-05-14T01:52:51.847Z,4.69
2019-05-14T01:53:49.341Z,4.67
2019-05-14T01:54:51.334Z,4.65
2019-05-14T01:55:49.328Z,4.63
2019-05-14T01:56:51.331Z,4.61
2019-05-14T01:57:51.577Z,4.58
2019-05-14T01:58:49.304Z,4.55
2019-05-14T01:59:51.469Z,4.52
2019-05-14T02:00:49.260Z,4.51
2019-05-14T02:01:51.532Z,4.49
2019-05-14T02:02:49.263Z,4.47
2019-05-14T02:03:51.618Z,4.44
2019-05-14T02:04:51.282Z,4.41
2019-05-14T02:05:49.207Z,4.41
2019-05-14T02:06:51.364Z,4.38
2019-05-14T02:07:49.210Z,4.36
2019-05-14T02:08:51.290Z,4.34
2019-05-14T02:09:49.161Z,4.33
2019-05-14T02:10:49.159Z,4.30
2019-05-14T02:11:49.140Z,4.30
2019-05-14T02:12:51.357Z,4.28
2019-05-14T02:13:49.118Z,4.26
2019-05-14T02:14:51.110Z,4.24
2019-05-14T02:15:49.108Z,4.23
2019-05-14T02:16:51.066Z,4.22
2019-05-14T02:17:49.097Z,4.21
2019-05-14T02:18:49.213Z,4.21
2019-05-14T02:19:51.299Z,4.20
2019-05-14T02:20:49.058Z,4.18
2019-05-14T02:21:51.266Z,4.16
2019-05-14T02:22:49.087Z,4.16
2019-05-14T02:23:51.255Z,4.15
2019-05-14T02:24:49.005Z,4.13
2019-05-14T02:25:49.006Z,4.10
2019-05-14T02:26:51.262Z,4.09
2019-05-14T02:27:48.973Z,4.07
2019-05-14T02:28:51.218Z,4.05
2019-05-14T02:29:48.947Z,4.04
2019-05-14T02:30:57.484Z,4.02
2019-05-14T02:31:50.567Z,4.00
2019-05-14T02:32:49.845Z,3.97
2019-05-14T02:33:50.435Z,3.96
2019-05-14T02:34:49.923Z,3.96
2019-05-14T02:35:49.524Z,3.93
2019-05-14T02:36:49.722Z,3.93
2019-05-14T02:37:50.404Z,3.90
2019-05-14T02:38:49.538Z,3.89
2019-05-14T02:39:50.153Z,3.88
2019-05-14T02:40:49.638Z,3.85
2019-05-14T02:41:49.894Z,3.84
2019-05-14T02:42:49.698Z,3.81
2019-05-14T02:43:50.273Z,3.80
2019-05-14T02:44:49.554Z,3.80
2019-05-14T02:46:02.007Z,3.79
2019-05-14T02:46:50.590Z,3.77
2019-05-14T02:47:50.304Z,3.75
2019-05-14T02:48:49.261Z,3.74
2019-05-14T02:49:50.097Z,3.72
2019-05-14T02:50:49.645Z,3.71
2019-05-14T02:51:50.438Z,3.72
2019-05-14T02:52:49.647Z,3.73
2019-05-14T02:53:49.760Z,3.77
2019-05-14T02:54:49.620Z,3.83
2019-05-14T02:55:49.813Z,3.89
2019-05-14T02:56:49.529Z,3.95
2019-05-14T02:57:50.060Z,4.01
2019-05-14T02:58:49.912Z,4.08
2019-05-14T02:59:50.103Z,4.15
2019-05-14T03:00:49.290Z,4.20
2019-05-14T03:01:50.241Z,4.25
2019-05-14T03:02:49.375Z,4.31
2019-05-14T03:03:49.544Z,4.36
2019-05-14T03:04:49.865Z,4.40
2019-05-14T03:05:49.613Z,4.43
2019-05-14T03:06:49.856Z,4.48
2019-05-14T03:07:50.066Z,4.53
2019-05-14T03:08:49.347Z,4.58
2019-05-14T03:09:50.219Z,4.63
2019-05-14T03:10:50.322Z,4.66
2019-05-14T03:11:48.723Z,4.70
2019-05-14T03:12:50.115Z,4.75
2019-05-14T03:13:49.460Z,4.79
2019-05-14T03:14:49.897Z,4.82
2019-05-14T03:15:49.791Z,4.86
2019-05-14T03:16:49.486Z,4.87
2019-05-14T03:17:49.425Z,4.89
2019-05-14T03:18:50.226Z,4.87
2019-05-14T03:19:49.613Z,4.85
2019-05-14T03:20:50.300Z,4.82
2019-05-14T03:21:50.231Z,4.80
2019-05-14T03:23:01.697Z,4.78
2019-05-14T03:23:49.948Z,4.76
2019-05-14T03:24:50.191Z,4.76
2019-05-14T03:25:49.280Z,4.77
2019-05-14T03:26:49.941Z,4.76
2019-05-14T03:27:49.701Z,4.77
2019-05-14T03:28:49.579Z,4.76
2019-05-14T03:29:49.989Z,4.73
2019-05-14T03:30:52.623Z,4.70
2019-05-14T03:31:52.757Z,4.67
2019-05-14T03:32:52.920Z,4.66
2019-05-14T03:33:52.392Z,4.62
2019-05-14T03:34:53.174Z,4.58
2019-05-14T03:35:56.545Z,4.55
2019-05-14T03:36:52.631Z,4.51
2019-05-14T03:37:49.638Z,4.49
2019-05-14T03:38:50.206Z,4.45
2019-05-14T03:39:49.380Z,4.42
2019-05-14T03:40:49.427Z,4.39
2019-05-14T03:41:49.848Z,4.37
2019-05-14T03:42:49.003Z,4.33
2019-05-14T03:43:49.350Z,4.30
2019-05-14T03:44:49.002Z,4.28
2019-05-14T03:45:49.638Z,4.25
2019-05-14T03:46:54.833Z,4.23
2019-05-14T03:47:50.679Z,4.20
2019-05-14T03:48:49.266Z,4.19
2019-05-14T03:49:49.927Z,4.17
2019-05-14T03:50:49.557Z,4.15
2019-05-14T03:51:49.720Z,4.14
2019-05-14T03:52:49.800Z,4.14
2019-05-14T03:53:57.211Z,4.13
2019-05-14T03:54:49.917Z,4.15
2019-05-14T03:55:50.292Z,4.16
2019-05-14T03:56:49.674Z,4.15
2019-05-14T03:57:49.985Z,4.17
2019-05-14T03:58:49.531Z,4.17
2019-05-14T03:59:49.953Z,4.17
2019-05-14T04:00:50.196Z,4.18
2019-05-14T04:01:50.999Z,4.18
2019-05-14T04:02:49.061Z,4.18
2019-05-14T04:03:50.331Z,4.19
2019-05-14T04:04:50.209Z,4.19
2019-05-14T04:05:49.193Z,4.20
2019-05-14T04:06:49.696Z,4.21
2019-05-14T04:07:50.172Z,4.22
2019-05-14T04:08:49.687Z,4.24
2019-05-14T04:09:49.348Z,4.27
2019-05-14T04:10:53.426Z,4.31
2019-05-14T04:11:50.506Z,4.32
2019-05-14T04:12:49.169Z,4.32
2019-05-14T04:13:49.622Z,4.33
2019-05-14T04:14:50.233Z,4.33
2019-05-14T04:15:49.811Z,4.33
2019-05-14T04:17:03.819Z,4.34
2019-05-14T04:17:50.185Z,4.35
2019-05-14T04:18:50.492Z,4.36
2019-05-14T04:19:49.497Z,4.37
2019-05-14T04:20:50.057Z,4.39
2019-05-14T04:21:49.028Z,4.39
2019-05-14T04:22:49.979Z,4.41
2019-05-14T04:23:50.772Z,4.42
2019-05-14T04:24:49.713Z,4.44
2019-05-14T04:25:49.828Z,4.47
2019-05-14T04:27:01.762Z,4.49
2019-05-14T04:27:49.524Z,4.51
2019-05-14T04:28:49.788Z,4.53
2019-05-14T04:29:49.934Z,4.57
2019-05-14T04:30:49.323Z,4.61
2019-05-14T04:31:50.195Z,4.64
2019-05-14T04:32:50.498Z,4.67
2019-05-14T04:33:50.025Z,4.71
2019-05-14T04:34:49.835Z,4.76
2019-05-14T04:35:49.089Z,4.81
2019-05-14T04:36:50.311Z,4.86
2019-05-14T04:37:49.577Z,4.91
2019-05-14T04:38:51.452Z,4.97
2019-05-14T04:39:50.428Z,5.03
2019-05-14T04:40:49.454Z,5.12
2019-05-14T04:41:49.759Z,5.20
2019-05-14T04:42:50.296Z,5.28
2019-05-14T04:43:50.082Z,5.38
2019-05-14T04:44:50.284Z,5.46
2019-05-14T04:45:49.712Z,5.57
2019-05-14T04:46:49.431Z,5.65
2019-05-14T04:47:49.724Z,5.74
2019-05-14T04:48:50.637Z,5.85
2019-05-14T04:49:50.224Z,5.94
2019-05-14T04:50:49.690Z,6.04
2019-05-14T04:51:50.349Z,6.11
2019-05-14T04:52:49.368Z,6.20
2019-05-14T04:53:49.838Z,6.30
2019-05-14T04:54:49.985Z,6.40
2019-05-14T04:55:49.419Z,6.48
2019-05-14T04:56:50.787Z,6.57
2019-05-14T04:57:50.087Z,6.66
2019-05-14T04:58:49.677Z,6.75
2019-05-14T04:59:49.377Z,6.85
2019-05-14T05:00:49.959Z,6.94
2019-05-14T05:01:49.322Z,7.04
2019-05-14T05:02:49.705Z,7.13
2019-05-14T05:03:50.390Z,7.23
2019-05-14T05:04:50.641Z,7.32
2019-05-14T05:05:49.955Z,7.40
2019-05-14T05:06:49.903Z,7.46
2019-05-14T05:07:49.231Z,7.53
2019-05-14T05:08:49.936Z,7.59
2019-05-14T05:09:49.902Z,7.66
2019-05-14T05:10:49.520Z,7.74
2019-05-14T05:11:49.849Z,7.81
2019-05-14T05:12:49.299Z,7.90
2019-05-14T05:13:48.812Z,7.99
2019-05-14T05:14:49.256Z,8.04
2019-05-14T05:15:48.684Z,8.12
2019-05-14T05:16:49.023Z,8.24
2019-05-14T05:17:52.445Z,8.36
2019-05-14T05:18:49.016Z,8.47
2019-05-14T05:19:51.225Z,8.59
2019-05-14T05:20:50.210Z,8.69
2019-05-14T05:21:48.082Z,8.79
2019-05-14T05:22:48.553Z,8.88
2019-05-14T05:23:49.308Z,8.97
2019-05-14T05:24:48.456Z,9.05
2019-05-14T05:25:49.025Z,9.11
2019-05-14T05:26:48.516Z,9.19
2019-05-14T05:27:48.718Z,9.24
2019-05-14T05:29:01.748Z,9.29
2019-05-14T05:29:48.709Z,9.33
2019-05-14T05:30:49.094Z,9.37
2019-05-14T05:31:48.767Z,9.44
2019-05-14T05:32:49.229Z,9.50
2019-05-14T05:33:49.081Z,9.55
2019-05-14T05:34:48.256Z,9.62
2019-05-14T05:35:48.662Z,9.67
2019-05-14T05:36:48.493Z,9.74
2019-05-14T05:37:49.052Z,9.79
2019-05-14T05:38:49.120Z,9.83
2019-05-14T05:39:48.893Z,9.88
2019-05-14T05:40:48.610Z,9.91
2019-05-14T05:41:49.022Z,9.94
2019-05-14T05:42:48.995Z,9.95
2019-05-14T05:43:48.416Z,9.97
2019-05-14T05:44:48.350Z,9.99
2019-05-14T05:45:48.589Z,9.99
2019-05-14T05:46:49.149Z,10.00
2019-05-14T05:47:57.152Z,10.01
2019-05-14T05:48:48.291Z,10.03
2019-05-14T05:49:48.836Z,10.05
2019-05-14T05:50:48.464Z,10.08
2019-05-14T05:51:48.428Z,10.10
2019-05-14T05:52:49.196Z,10.12
2019-05-14T05:53:48.363Z,10.17
2019-05-14T05:54:48.799Z,10.21
2019-05-14T05:55:48.494Z,10.24
2019-05-14T05:56:48.193Z,10.29
2019-05-14T05:57:49.055Z,10.32
2019-05-14T05:58:48.972Z,10.37
2019-05-14T05:59:48.438Z,10.42
2019-05-14T06:00:49.518Z,10.45
2019-05-14T06:01:49.950Z,10.46
2019-05-14T06:02:48.848Z,10.43
2019-05-14T06:03:49.001Z,10.38
2019-05-14T06:04:48.040Z,10.47
2019-05-14T06:05:49.097Z,10.48
2019-05-14T06:06:48.253Z,10.55
2019-05-14T06:07:48.267Z,10.64
2019-05-14T06:08:48.853Z,10.60
2019-05-14T06:09:48.349Z,10.65
2019-05-14T06:10:48.904Z,10.80
2019-05-14T06:11:48.703Z,10.91
2019-05-14T06:12:48.930Z,10.99
2019-05-14T06:13:48.528Z,11.12
2019-05-14T06:14:48.553Z,11.25
2019-05-14T06:15:49.545Z,11.34
2019-05-14T06:16:48.862Z,11.25
2019-05-14T06:17:49.041Z,11.30
2019-05-14T06:18:48.313Z,11.45
2019-05-14T06:19:48.455Z,11.70
2019-05-14T06:20:49.205Z,11.94
2019-05-14T06:21:49.106Z,12.07
2019-05-14T06:22:48.777Z,12.28
2019-05-14T06:23:48.744Z,12.57
2019-05-14T06:24:48.554Z,12.72
2019-05-14T06:25:49.029Z,12.94
2019-05-14T06:26:48.787Z,13.12
2019-05-14T06:27:48.442Z,13.27
2019-05-14T06:28:48.576Z,13.54
2019-05-14T06:29:48.691Z,13.68
2019-05-14T06:30:48.386Z,13.69
2019-05-14T06:31:46.375Z,13.59
2019-05-14T06:32:48.589Z,13.44
2019-05-14T06:33:48.639Z,13.34
2019-05-14T06:34:48.644Z,13.41
2019-05-14T06:35:48.539Z,13.48
2019-05-14T06:36:48.475Z,13.52
2019-05-14T06:37:48.819Z,13.60
2019-05-14T06:38:46.272Z,13.62
2019-05-14T06:39:48.425Z,13.60
2019-05-14T06:40:48.760Z,13.53
2019-05-14T06:41:48.824Z,13.47
2019-05-14T06:42:48.430Z,13.53
2019-05-14T06:43:48.424Z,13.62
2019-05-14T06:44:46.222Z,13.70
2019-05-14T06:45:49.309Z,13.75
2019-05-14T06:46:48.440Z,13.85
2019-05-14T06:47:48.574Z,13.89
2019-05-14T06:48:48.416Z,13.84
2019-05-14T06:49:48.572Z,13.80
2019-05-14T06:50:46.184Z,13.78
2019-05-14T06:51:48.731Z,13.76
2019-05-14T06:52:46.135Z,13.76
2019-05-14T06:53:46.118Z,13.75
2019-05-14T06:54:46.134Z,13.73
2019-05-14T06:55:48.246Z,13.77
2019-05-14T06:56:46.098Z,13.78
2019-05-14T06:57:48.043Z,13.75
2019-05-14T06:58:48.775Z,13.73
2019-05-14T06:59:48.222Z,13.72
2019-05-14T07:00:46.059Z,13.74
2019-05-14T07:01:46.051Z,13.77
2019-05-14T07:02:48.889Z,13.78
2019-05-14T07:03:46.009Z,13.79
2019-05-14T07:04:48.228Z,13.85
2019-05-14T07:05:46.011Z,13.94
2019-05-14T07:06:48.244Z,14.02
2019-05-14T07:07:49.065Z,14.09
2019-05-14T07:08:48.137Z,14.19
2019-05-14T07:09:45.949Z,14.13
2019-05-14T07:10:48.380Z,14.13
2019-05-14T07:11:45.922Z,14.09
2019-05-14T07:12:45.931Z,14.22
2019-05-14T07:13:45.921Z,14.35
2019-05-14T07:14:47.976Z,14.41
2019-05-14T07:15:45.868Z,14.43
2019-05-14T07:16:48.322Z,14.43
2019-05-14T07:17:45.881Z,14.41
2019-05-14T07:18:50.652Z,14.39
2019-05-14T07:19:48.927Z,14.38
2019-05-14T07:20:48.096Z,14.39
2019-05-14T07:21:45.811Z,14.40
2019-05-14T07:22:48.177Z,14.39
2019-05-14T07:23:45.838Z,14.37
2019-05-14T07:24:45.767Z,14.33
2019-05-14T07:25:48.159Z,14.29
2019-05-14T07:26:45.749Z,14.28
2019-05-14T07:27:45.767Z,14.29
2019-05-14T07:28:48.560Z,14.30
2019-05-14T07:29:45.717Z,14.32
2019-05-14T07:30:48.330Z,14.37
2019-05-14T07:31:45.707Z,14.44
2019-05-14T07:32:48.243Z,14.53
2019-05-14T07:33:45.733Z,14.62
2019-05-14T07:34:48.026Z,14.70
2019-05-14T07:35:45.656Z,14.84
2019-05-14T07:36:45.646Z,14.95
2019-05-14T07:37:45.639Z,15.08
2019-05-14T07:38:48.678Z,15.21
2019-05-14T07:39:45.674Z,15.35
2019-05-14T07:40:45.624Z,15.51
2019-05-14T07:41:48.227Z,15.59
2019-05-14T07:42:45.588Z,15.66
2019-05-14T07:43:45.570Z,15.78
2019-05-14T07:44:45.564Z,15.92
2019-05-14T07:45:45.628Z,16.06
2019-05-14T07:46:45.578Z,16.15
2019-05-14T07:47:45.578Z,16.24
2019-05-14T07:49:00.612Z,16.30
2019-05-14T07:49:48.793Z,16.42
2019-05-14T07:50:51.254Z,16.55
2019-05-14T07:51:48.203Z,16.60
2019-05-14T07:52:45.976Z,16.64
2019-05-14T07:53:45.457Z,16.63
2019-05-14T07:54:45.449Z,16.59
2019-05-14T07:55:45.456Z,16.54
2019-05-14T07:56:45.466Z,16.50
2019-05-14T07:57:45.428Z,16.44
2019-05-14T07:58:45.406Z,16.41
2019-05-14T07:59:45.405Z,16.37
2019-05-14T08:00:45.395Z,16.30
2019-05-14T08:01:45.397Z,16.27
2019-05-14T08:02:45.369Z,16.26
2019-05-14T08:03:45.346Z,16.26
2019-05-14T08:04:45.356Z,16.27
2019-05-14T08:05:45.337Z,16.30
2019-05-14T08:06:45.321Z,16.35
2019-05-14T08:07:45.341Z,16.41
2019-05-14T08:08:45.302Z,16.44
2019-05-14T08:09:45.295Z,16.47
2019-05-14T08:10:45.275Z,16.49
2019-05-14T08:11:45.266Z,16.56
2019-05-14T08:12:45.274Z,16.73
2019-05-14T08:13:45.305Z,17.25
2019-05-14T08:15:02.474Z,18.21
2019-05-14T08:15:46.241Z,19.09
2019-05-14T08:16:45.218Z,20.49
2019-05-14T08:17:45.223Z,22.98
2019-05-14T08:18:45.209Z,25.75
2019-05-14T08:19:45.187Z,28.35
2019-05-14T08:20:45.198Z,30.59
2019-05-14T08:21:45.175Z,32.42
2019-05-14T08:22:45.158Z,33.95
2019-05-14T08:23:45.144Z,35.22
2019-05-14T08:24:45.288Z,36.29
2019-05-14T08:25:45.141Z,37.27
2019-05-14T08:26:45.106Z,37.98
2019-05-14T08:27:45.097Z,38.30
2019-05-14T08:28:45.106Z,39.13
2019-05-14T08:29:45.086Z,39.83
2019-05-14T08:30:45.070Z,40.44
2019-05-14T08:31:45.045Z,40.95
2019-05-14T08:32:45.038Z,41.46
2019-05-14T08:33:45.121Z,42.01
2019-05-14T08:34:45.020Z,42.45
2019-05-14T08:35:44.996Z,42.16
2019-05-14T08:36:45.009Z,41.47
2019-05-14T08:37:45.011Z,41.43
2019-05-14T08:38:45.555Z,41.78
2019-05-14T08:39:44.988Z,42.03
2019-05-14T08:40:44.946Z,41.82
2019-05-14T08:41:56.054Z,41.39
2019-05-14T08:42:45.926Z,40.96
2019-05-14T08:43:44.914Z,41.24
2019-05-14T08:44:47.930Z,41.79
2019-05-14T08:45:48.473Z,42.36
2019-05-14T08:46:45.370Z,43.45
2019-05-14T08:47:44.883Z,44.31
2019-05-14T08:48:44.885Z,44.99
2019-05-14T08:49:46.491Z,45.42
2019-05-14T08:50:47.965Z,45.77
2019-05-14T08:51:44.868Z,46.21
2019-05-14T08:52:44.835Z,46.55
2019-05-14T08:53:44.826Z,46.94
2019-05-14T08:54:44.805Z,47.37
2019-05-14T08:55:44.820Z,47.64
2019-05-14T08:56:44.789Z,47.93
2019-05-14T08:57:44.911Z,48.35
2019-05-14T08:58:44.767Z,48.25
2019-05-14T08:59:44.760Z,47.58
2019-05-14T09:00:44.766Z,48.19
2019-05-14T09:01:58.740Z,45.66
2019-05-14T09:02:45.715Z,43.78
2019-05-14T09:03:44.709Z,42.50
2019-05-14T09:04:44.723Z,44.41
2019-05-14T09:05:44.738Z,46.02
2019-05-14T09:06:44.710Z,46.95
2019-05-14T09:07:44.657Z,48.01
2019-05-14T09:08:44.657Z,48.92
2019-05-14T09:09:44.678Z,48.01
2019-05-14T09:10:44.639Z,48.76
2019-05-14T09:11:46.385Z,48.43
2019-05-14T09:12:45.668Z,48.70
2019-05-14T09:13:44.598Z,49.28
2019-05-14T09:14:44.600Z,49.95
2019-05-14T09:15:44.583Z,50.46
2019-05-14T09:16:47.737Z,50.92
2019-05-14T09:17:48.128Z,51.34
2019-05-14T09:18:44.561Z,51.75
2019-05-14T09:20:01.164Z,52.11
2019-05-14T09:20:45.973Z,52.34
2019-05-14T09:21:44.554Z,52.46
2019-05-14T09:22:44.511Z,52.58
2019-05-14T09:23:44.503Z,52.38
2019-05-14T09:24:44.504Z,52.50
2019-05-14T09:25:48.330Z,52.91
2019-05-14T09:26:45.481Z,53.29
2019-05-14T09:27:44.479Z,53.63
2019-05-14T09:28:44.450Z,53.90
2019-05-14T09:29:44.443Z,54.19
2019-05-14T09:30:44.419Z,50.79
2019-05-14T09:31:44.439Z,47.07
2019-05-14T09:32:44.410Z,44.90
2019-05-14T09:33:44.439Z,42.37
2019-05-14T09:34:44.393Z,46.58
2019-05-14T09:35:44.397Z,48.93
2019-05-14T09:36:44.401Z,50.51
2019-05-14T09:37:44.349Z,51.68
2019-05-14T09:38:44.394Z,52.79
2019-05-14T09:39:44.332Z,53.89
2019-05-14T09:40:44.350Z,54.93
2019-05-14T09:41:44.329Z,55.71
2019-05-14T09:42:44.317Z,56.25
2019-05-14T09:43:44.291Z,56.47
2019-05-14T09:44:44.284Z,56.87
2019-05-14T09:45:44.282Z,56.89
2019-05-14T09:46:44.310Z,57.09
2019-05-14T09:47:47.531Z,57.23
2019-05-14T09:48:45.245Z,53.85
2019-05-14T09:49:44.240Z,49.85
2019-05-14T09:50:44.222Z,51.27
2019-05-14T09:51:44.238Z,46.17
2019-05-14T09:52:44.230Z,45.62
2019-05-14T09:53:44.215Z,49.48
2019-05-14T09:54:44.270Z,51.85
2019-05-14T09:55:44.172Z,48.32
2019-05-14T09:56:44.189Z,44.01
2019-05-14T09:57:44.163Z,41.01
2019-05-14T09:58:44.155Z,39.97
2019-05-14T09:59:44.149Z,45.12
2019-05-14T10:00:44.147Z,48.33
2019-05-14T10:01:44.114Z,50.23
2019-05-14T10:02:44.138Z,48.84
2019-05-14T10:03:44.089Z,45.79
2019-05-14T10:04:44.075Z,41.98
2019-05-14T10:05:44.076Z,39.03
2019-05-14T10:06:44.058Z,36.90
2019-05-14T10:07:44.044Z,39.64
2019-05-14T10:08:44.054Z,40.63
2019-05-14T10:09:44.066Z,39.42
2019-05-14T10:10:44.015Z,38.25
2019-05-14T10:11:44.039Z,37.02
2019-05-14T10:12:52.482Z,36.15
2019-05-14T10:13:45.014Z,35.10
2019-05-14T10:14:43.970Z,34.14
2019-05-14T10:15:44.027Z,33.80
2019-05-14T10:16:43.954Z,33.03
2019-05-14T10:17:43.970Z,32.44
2019-05-14T10:18:43.925Z,32.37
2019-05-14T10:19:43.931Z,32.23
2019-05-14T10:20:46.020Z,31.78
2019-05-14T10:21:43.897Z,31.35
2019-05-14T10:22:43.906Z,31.09
2019-05-14T10:23:43.870Z,30.92
2019-05-14T10:24:43.869Z,30.77
2019-05-14T10:25:43.886Z,30.49
2019-05-14T10:26:43.866Z,30.18
2019-05-14T10:27:43.826Z,29.83
2019-05-14T10:28:43.835Z,29.53
2019-05-14T10:29:43.818Z,29.39
2019-05-14T10:30:43.812Z,29.47
2019-05-14T10:31:43.801Z,29.71
2019-05-14T10:32:43.842Z,29.96
2019-05-14T10:33:43.784Z,30.12
2019-05-14T10:34:43.759Z,30.37
2019-05-14T10:35:43.817Z,30.62
2019-05-14T10:36:43.737Z,30.77
2019-05-14T10:37:43.755Z,30.95
2019-05-14T10:38:43.756Z,30.99
2019-05-14T10:39:43.773Z,31.08
2019-05-14T10:40:43.731Z,31.02
2019-05-14T10:41:43.698Z,30.80
2019-05-14T10:42:43.679Z,30.46
2019-05-14T10:43:43.671Z,30.37
2019-05-14T10:44:43.716Z,29.97
2019-05-14T10:45:43.638Z,29.97
2019-05-14T10:46:43.659Z,30.49
2019-05-14T10:47:43.624Z,32.44
2019-05-14T10:48:43.617Z,31.50
2019-05-14T10:49:43.590Z,30.44
2019-05-14T10:50:56.077Z,29.62
2019-05-14T10:51:44.578Z,29.24
2019-05-14T10:52:43.576Z,36.51
2019-05-14T10:53:43.585Z,41.25
2019-05-14T10:54:55.441Z,44.37
2019-05-14T10:55:44.518Z,46.63
2019-05-14T10:56:43.533Z,48.37
2019-05-14T10:57:43.528Z,49.81
2019-05-14T10:58:43.520Z,51.10
2019-05-14T10:59:43.494Z,52.36
2019-05-14T11:00:43.502Z,53.49
2019-05-14T11:01:43.489Z,54.26
2019-05-14T11:02:43.464Z,54.63
2019-05-14T11:03:43.444Z,54.95
2019-05-14T11:04:43.457Z,55.39
2019-05-14T11:05:43.490Z,55.96
2019-05-14T11:06:43.423Z,56.76
2019-05-14T11:07:43.410Z,57.80
2019-05-14T11:08:43.404Z,53.80
2019-05-14T11:09:43.381Z,48.54
2019-05-14T11:10:43.385Z,45.72
2019-05-14T11:11:43.392Z,48.25
2019-05-14T11:12:43.353Z,44.92
2019-05-14T11:13:43.362Z,42.10
2019-05-14T11:14:43.333Z,40.42
2019-05-14T11:15:43.325Z,38.93
2019-05-14T11:16:43.349Z,40.50
2019-05-14T11:17:43.311Z,41.87
2019-05-14T11:18:43.322Z,46.58
2019-05-14T11:19:43.304Z,43.41
2019-05-14T11:20:43.304Z,41.63
2019-05-14T11:21:43.252Z,39.21
2019-05-14T11:22:43.295Z,37.66
2019-05-14T11:23:43.266Z,38.17
2019-05-14T11:24:43.248Z,38.28
2019-05-14T11:25:43.229Z,40.66
2019-05-14T11:26:43.216Z,43.64
2019-05-14T11:27:43.202Z,43.62
2019-05-14T11:28:43.216Z,45.08
2019-05-14T11:29:43.185Z,47.39
2019-05-14T11:30:43.198Z,43.45
2019-05-14T11:31:43.167Z,40.94
2019-05-14T11:32:43.149Z,39.17
2019-05-14T11:33:43.177Z,40.40
2019-05-14T11:34:43.130Z,44.36
2019-05-14T11:35:43.115Z,41.24
2019-05-14T11:36:43.102Z,42.60
2019-05-14T11:37:43.095Z,47.19
2019-05-14T11:38:43.086Z,50.02
2019-05-14T11:39:43.112Z,45.85
2019-05-14T11:40:43.077Z,48.50
2019-05-14T11:41:43.057Z,51.16
2019-05-14T11:42:43.036Z,48.87
2019-05-14T11:43:43.047Z,50.61
2019-05-14T11:44:43.044Z,48.81
2019-05-14T11:45:43.014Z,50.03
2019-05-14T11:46:51.401Z,52.19
2019-05-14T11:47:43.996Z,48.90
2019-05-14T11:48:42.986Z,45.24
2019-05-14T11:49:42.957Z,45.95
2019-05-14T11:50:42.979Z,44.87
2019-05-14T11:52:43.945Z,39.97
2019-05-14T11:53:42.955Z,38.33
2019-05-14T11:54:42.907Z,37.00
2019-05-14T11:55:42.915Z,38.25
2019-05-14T11:56:42.907Z,37.59
2019-05-14T11:57:42.887Z,40.13
2019-05-14T11:58:42.877Z,38.69
2019-05-14T11:59:42.895Z,37.27
2019-05-14T12:00:42.859Z,36.58
2019-05-14T12:01:42.928Z,37.06
2019-05-14T12:02:42.848Z,38.74
2019-05-14T12:03:42.859Z,38.51
2019-05-14T12:04:42.836Z,36.23
2019-05-14T12:05:42.811Z,36.55
2019-05-14T12:06:42.779Z,40.31
2019-05-14T12:07:42.792Z,42.86
2019-05-14T12:08:42.776Z,46.65
2019-05-14T12:09:42.768Z,49.25
2019-05-14T12:10:42.765Z,51.13
2019-05-14T12:11:42.749Z,52.63
2019-05-14T12:12:42.729Z,53.88
2019-05-14T12:13:42.709Z,54.80
2019-05-14T12:14:42.734Z,55.75
2019-05-14T12:15:42.688Z,56.48
2019-05-14T12:16:42.691Z,57.13
2019-05-14T12:17:42.699Z,57.69
2019-05-14T12:18:42.668Z,58.09
2019-05-14T12:19:43.790Z,58.53
2019-05-14T12:20:42.650Z,59.11
2019-05-14T12:21:58.997Z,59.80
2019-05-14T12:22:43.650Z,60.62
2019-05-14T12:23:42.631Z,61.32
2019-05-14T12:24:42.599Z,62.04
2019-05-14T12:25:42.634Z,62.63
2019-05-14T12:26:42.608Z,61.87
2019-05-14T12:27:42.609Z,60.49
2019-05-14T12:28:42.568Z,55.76
2019-05-14T12:29:42.561Z,55.10
2019-05-14T12:30:42.550Z,53.64
2019-05-14T12:31:42.584Z,56.53
2019-05-14T12:32:42.522Z,58.00
2019-05-14T12:33:42.515Z,58.92
2019-05-14T12:34:42.590Z,59.50
2019-05-14T12:35:42.522Z,60.07
2019-05-14T12:36:42.483Z,60.64
2019-05-14T12:37:42.499Z,61.07
2019-05-14T12:38:42.462Z,60.38
2019-05-14T12:39:42.477Z,53.10
2019-05-14T12:40:42.473Z,48.27
2019-05-14T12:41:42.892Z,44.87
2019-05-14T12:42:42.450Z,43.53
2019-05-14T12:43:43.940Z,47.10
2019-05-14T12:44:42.428Z,50.38
2019-05-14T12:45:42.396Z,53.28
2019-05-14T12:46:42.404Z,55.50
2019-05-14T12:47:42.380Z,51.07
2019-05-14T12:48:42.375Z,50.04
2019-05-14T12:49:42.366Z,52.74
2019-05-14T12:50:42.378Z,55.05
2019-05-14T12:51:42.799Z,56.42
2019-05-14T12:52:42.336Z,57.44
2019-05-14T12:53:42.311Z,56.58
2019-05-14T12:54:42.315Z,55.41
2019-05-14T12:55:42.293Z,52.44
2019-05-14T12:56:42.326Z,54.26
2019-05-14T12:57:42.294Z,54.96
2019-05-14T12:58:45.961Z,51.29
2019-05-14T12:59:42.274Z,53.16
2019-05-14T13:00:42.234Z,54.94
2019-05-14T13:01:42.309Z,56.10
2019-05-14T13:02:42.227Z,56.88
2019-05-14T13:03:42.225Z,57.58
2019-05-14T13:04:43.172Z,58.19